createdAt,value
2023-05-06T00:02:04.617Z,16.20
2023-05-06T00:04:10.042Z,16.15
2023-05-06T00:06:15.032Z,16.11
2023-05-06T00:08:20.141Z,16.04
2023-05-06T00:10:25.014Z,15.92
2023-05-06T00:12:32.458Z,15.87
2023-05-06T00:14:37.366Z,15.90
2023-05-06T00:16:45.312Z,15.83
2023-05-06T00:18:50.283Z,15.84
2023-05-06T00:20:55.271Z,15.72
2023-05-06T00:23:00.219Z,15.72
2023-05-06T00:25:06.473Z,15.75
2023-05-06T00:27:11.570Z,15.80
2023-05-06T00:29:18.869Z,15.88
2023-05-06T00:31:23.790Z,15.90
2023-05-06T00:33:29.834Z,15.86
2023-05-06T00:35:34.754Z,15.88
2023-05-06T00:37:39.814Z,15.81
2023-05-06T00:39:44.694Z,15.76
2023-05-06T00:41:49.594Z,15.69
2023-05-06T00:43:54.489Z,15.76
2023-05-06T00:46:02.039Z,15.83
2023-05-06T00:48:09.679Z,15.83
2023-05-06T00:50:14.874Z,15.87
2023-05-06T00:52:20.554Z,15.89
2023-05-06T00:54:27.281Z,15.87
2023-05-06T00:56:32.304Z,15.84
2023-05-06T00:58:38.044Z,15.78
2023-05-06T01:00:43.427Z,15.81
2023-05-06T01:02:52.422Z,15.74
2023-05-06T01:04:58.770Z,15.61
2023-05-06T01:07:11.345Z,15.58
2023-05-06T01:09:23.778Z,15.58
2023-05-06T01:11:38.488Z,15.64
2023-05-06T01:13:50.239Z,15.63
2023-05-06T01:15:57.983Z,15.65
2023-05-06T01:18:11.845Z,15.66
2023-05-06T01:20:17.797Z,15.68
2023-05-06T01:22:23.123Z,15.65
2023-05-06T01:24:40.585Z,15.58
2023-05-06T01:26:45.580Z,15.41
2023-05-06T01:28:50.504Z,15.32
2023-05-06T01:31:03.939Z,15.25
2023-05-06T01:33:14.501Z,15.36
2023-05-06T01:35:27.431Z,15.40
2023-05-06T01:37:41.616Z,15.42
2023-05-06T01:39:49.765Z,15.53
2023-05-06T01:41:57.536Z,15.61
2023-05-06T01:44:04.204Z,15.55
2023-05-06T01:46:14.305Z,15.45
2023-05-06T01:48:20.066Z,15.41
2023-05-06T01:50:26.442Z,15.45
2023-05-06T01:52:31.844Z,15.44
2023-05-06T01:54:36.771Z,15.48
2023-05-06T01:56:44.286Z,15.44
2023-05-06T01:58:49.241Z,15.42
2023-05-06T02:00:54.126Z,15.43
2023-05-06T02:02:59.016Z,15.48
2023-05-06T02:05:04.280Z,15.55
2023-05-06T02:07:08.911Z,15.58
2023-05-06T02:09:13.892Z,15.63
2023-05-06T02:11:23.329Z,15.60
2023-05-06T02:13:33.420Z,15.61
2023-05-06T02:15:38.459Z,15.61
2023-05-06T02:17:45.370Z,15.65
2023-05-06T02:19:50.234Z,15.59
2023-05-06T02:21:56.133Z,15.62
2023-05-06T02:24:01.882Z,15.58
2023-05-06T02:26:06.665Z,15.49
2023-05-06T02:28:11.516Z,15.45
2023-05-06T02:30:19.106Z,15.36
2023-05-06T02:32:24.050Z,15.29
2023-05-06T02:34:28.997Z,15.25
2023-05-06T02:36:34.038Z,15.24
2023-05-06T02:38:38.954Z,15.20
2023-05-06T02:40:43.966Z,15.17
2023-05-06T02:42:48.977Z,15.15
2023-05-06T02:44:53.943Z,15.20
2023-05-06T02:47:01.522Z,15.26
2023-05-06T02:49:06.488Z,15.33
2023-05-06T02:51:11.403Z,15.31
2023-05-06T02:53:16.240Z,15.36
2023-05-06T02:55:21.703Z,15.45
2023-05-06T02:57:26.667Z,15.42
2023-05-06T02:59:31.572Z,15.47
2023-05-06T03:01:36.600Z,15.54
2023-05-06T03:03:44.764Z,15.61
2023-05-06T03:05:49.738Z,15.68
2023-05-06T03:07:55.448Z,15.68
2023-05-06T03:10:00.467Z,15.70
2023-05-06T03:12:08.748Z,15.57
2023-05-06T03:14:13.735Z,15.68
2023-05-06T03:16:19.198Z,15.73
2023-05-06T03:18:28.063Z,15.80
2023-05-06T03:20:35.616Z,15.83
2023-05-06T03:22:42.529Z,15.86
2023-05-06T03:24:48.060Z,15.81
2023-05-06T03:26:53.217Z,15.86
2023-05-06T03:28:58.152Z,15.85
2023-05-06T03:31:03.785Z,15.90
2023-05-06T03:33:11.037Z,15.89
2023-05-06T03:35:16.023Z,15.92
2023-05-06T03:37:26.890Z,15.99
2023-05-06T03:39:34.822Z,16.01
2023-05-06T03:41:40.411Z,16.02
2023-05-06T03:43:46.144Z,16.00
2023-05-06T03:45:52.784Z,16.03
2023-05-06T03:47:58.680Z,16.07
2023-05-06T03:50:04.883Z,16.09
2023-05-06T03:52:11.964Z,16.07
2023-05-06T03:54:20.105Z,16.01
2023-05-06T03:56:25.194Z,16.02
2023-05-06T03:58:32.260Z,16.05
2023-05-06T04:00:40.944Z,16.08
2023-05-06T04:02:45.944Z,16.07
2023-05-06T04:04:58.961Z,16.04
2023-05-06T04:07:04.044Z,15.99
2023-05-06T04:09:09.776Z,15.96
2023-05-06T04:11:19.831Z,15.93
2023-05-06T04:13:26.417Z,15.92
2023-05-06T04:15:34.584Z,15.92
2023-05-06T04:17:41.619Z,15.92
2023-05-06T04:19:47.814Z,15.90
2023-05-06T04:21:52.780Z,15.87
2023-05-06T04:23:58.323Z,15.81
2023-05-06T04:26:10.594Z,15.74
2023-05-06T04:28:22.009Z,15.60
2023-05-06T04:30:29.131Z,15.50
2023-05-06T04:32:34.410Z,15.42
2023-05-06T04:34:40.701Z,15.33
2023-05-06T04:36:49.700Z,15.28
2023-05-06T04:39:23.471Z,15.16
2023-05-06T04:41:31.321Z,15.12
2023-05-06T04:43:40.131Z,15.06
2023-05-06T04:45:53.136Z,15.10
2023-05-06T04:48:03.224Z,15.16
2023-05-06T04:50:10.318Z,15.24
2023-05-06T04:52:15.239Z,15.31
2023-05-06T04:54:20.143Z,15.40
2023-05-06T04:56:25.084Z,15.42
2023-05-06T04:58:30.040Z,15.41
2023-05-06T05:00:38.759Z,15.33
2023-05-06T05:02:43.895Z,15.23
2023-05-06T05:04:49.583Z,15.29
2023-05-06T05:06:54.543Z,15.23
2023-05-06T05:08:59.845Z,15.29
2023-05-06T05:11:06.236Z,15.33
2023-05-06T05:13:11.676Z,15.26
2023-05-06T05:15:17.269Z,15.25
2023-05-06T05:17:25.108Z,15.23
2023-05-06T05:19:30.750Z,15.30
2023-05-06T05:21:36.260Z,15.29
2023-05-06T05:23:41.882Z,15.17
2023-05-06T05:25:47.440Z,15.31
2023-05-06T05:27:52.568Z,15.31
2023-05-06T05:29:57.431Z,15.26
2023-05-06T05:32:02.342Z,15.25
2023-05-06T05:34:10.043Z,15.22
2023-05-06T05:36:15.612Z,15.26
2023-05-06T05:38:23.065Z,15.30
2023-05-06T05:40:29.058Z,15.32
2023-05-06T05:42:35.442Z,15.39
2023-05-06T05:44:49.215Z,15.34
2023-05-06T05:46:54.488Z,15.32
2023-05-06T05:48:59.629Z,15.44
2023-05-06T05:51:07.336Z,15.69
2023-05-06T05:53:12.334Z,15.79
2023-05-06T05:55:17.206Z,15.87
2023-05-06T05:57:24.598Z,15.96
2023-05-06T05:59:31.787Z,16.03
2023-05-06T06:01:41.187Z,15.98
2023-05-06T06:03:47.431Z,16.09
2023-05-06T06:05:53.164Z,16.11
2023-05-06T06:08:03.497Z,15.96
2023-05-06T06:10:10.730Z,15.81
2023-05-06T06:12:16.064Z,15.62
2023-05-06T06:14:21.100Z,15.47
2023-05-06T06:16:27.350Z,15.42
2023-05-06T06:18:32.285Z,15.38
2023-05-06T06:20:37.186Z,15.23
2023-05-06T06:22:42.500Z,15.29
2023-05-06T06:24:54.370Z,15.33
2023-05-06T06:26:59.215Z,15.35
2023-05-06T06:29:05.026Z,15.50
2023-05-06T06:31:10.628Z,15.54
2023-05-06T06:33:15.611Z,15.52
2023-05-06T06:35:20.734Z,15.67
2023-05-06T06:37:25.466Z,15.55
2023-05-06T06:39:30.397Z,15.57
2023-05-06T06:41:37.852Z,15.65
2023-05-06T06:43:43.369Z,15.68
2023-05-06T06:46:01.646Z,15.84
2023-05-06T06:48:06.509Z,15.90
2023-05-06T06:50:12.624Z,15.98
2023-05-06T06:52:17.578Z,16.16
2023-05-06T06:54:22.549Z,16.19
2023-05-06T06:56:27.504Z,16.24
2023-05-06T06:58:36.164Z,16.31
2023-05-06T07:00:41.144Z,16.36
2023-05-06T07:02:48.333Z,16.46
2023-05-06T07:04:56.289Z,16.45
2023-05-06T07:07:01.222Z,16.41
2023-05-06T07:09:06.249Z,16.36
2023-05-06T07:11:11.205Z,16.53
2023-05-06T07:13:20.878Z,16.70
2023-05-06T07:15:28.707Z,16.64
2023-05-06T07:17:33.665Z,16.68
2023-05-06T07:19:38.678Z,16.77
2023-05-06T07:21:43.689Z,16.68
2023-05-06T07:23:48.570Z,16.71
2023-05-06T07:25:53.417Z,16.82
2023-05-06T07:27:58.303Z,17.05
2023-05-06T07:30:03.536Z,17.02
2023-05-06T07:32:11.287Z,16.96
2023-05-06T07:34:16.267Z,16.88
2023-05-06T07:36:21.234Z,16.77
2023-05-06T07:38:26.350Z,16.76
2023-05-06T07:40:31.209Z,16.86
2023-05-06T07:42:36.295Z,17.03
2023-05-06T07:44:40.848Z,17.14
2023-05-06T07:46:45.846Z,17.22
2023-05-06T07:48:53.250Z,17.18
2023-05-06T07:50:58.241Z,17.18
2023-05-06T07:53:04.203Z,17.21
2023-05-06T07:55:11.971Z,17.48
2023-05-06T07:57:17.136Z,17.60
2023-05-06T07:59:22.179Z,17.81
2023-05-06T08:01:27.019Z,17.92
2023-05-06T08:03:32.088Z,18.03
2023-05-06T08:05:39.873Z,18.06
2023-05-06T08:07:45.056Z,18.31
2023-05-06T08:09:52.913Z,18.21
2023-05-06T08:11:58.554Z,18.25
2023-05-06T08:14:03.465Z,18.08
2023-05-06T08:16:09.665Z,18.13
2023-05-06T08:18:22.417Z,18.35
2023-05-06T08:20:28.219Z,18.48
2023-05-06T08:22:35.552Z,18.70
2023-05-06T08:24:40.464Z,18.93
2023-05-06T08:26:45.476Z,19.07
2023-05-06T08:28:50.532Z,19.33
2023-05-06T08:30:55.600Z,19.25
2023-05-06T08:33:00.670Z,19.27
2023-05-06T08:35:05.330Z,19.12
2023-05-06T08:37:10.214Z,19.13
2023-05-06T08:39:18.425Z,19.05
2023-05-06T08:41:25.010Z,19.05
2023-05-06T08:43:32.109Z,18.97
2023-05-06T08:45:37.219Z,18.97
2023-05-06T08:47:42.028Z,18.84
2023-05-06T08:49:47.136Z,18.97
2023-05-06T08:51:54.145Z,19.05
2023-05-06T08:54:03.810Z,19.20
2023-05-06T08:56:12.561Z,19.38
2023-05-06T08:58:20.171Z,19.45
2023-05-06T09:00:27.410Z,19.50
2023-05-06T09:02:32.984Z,19.71
2023-05-06T09:04:38.956Z,19.93
2023-05-06T09:06:43.842Z,19.91
2023-05-06T09:08:48.742Z,20.00
2023-05-06T09:10:53.772Z,19.90
2023-05-06T09:13:01.142Z,19.81
2023-05-06T09:15:06.284Z,19.65
2023-05-06T09:17:24.272Z,19.78
2023-05-06T09:19:29.611Z,19.96
2023-05-06T09:21:40.775Z,20.31
2023-05-06T09:23:45.938Z,20.61
2023-05-06T09:25:51.393Z,20.24
2023-05-06T09:28:06.764Z,20.42
2023-05-06T09:30:14.666Z,20.44
2023-05-06T09:32:23.165Z,20.42
2023-05-06T09:34:28.181Z,20.45
2023-05-06T09:36:33.432Z,20.41
2023-05-06T09:38:38.109Z,20.27
2023-05-06T09:40:43.196Z,20.31
2023-05-06T09:42:50.676Z,20.34
2023-05-06T09:45:03.126Z,20.36
2023-05-06T09:47:08.625Z,20.34
2023-05-06T09:49:15.288Z,20.60
2023-05-06T09:51:20.233Z,20.81
2023-05-06T09:53:25.667Z,21.02
2023-05-06T09:55:31.391Z,21.16
2023-05-06T09:57:37.246Z,21.06
2023-05-06T09:59:43.564Z,21.06
2023-05-06T10:01:51.915Z,20.81
2023-05-06T10:03:57.731Z,20.82
2023-05-06T10:06:04.200Z,20.84
2023-05-06T10:08:10.420Z,20.69
2023-05-06T10:10:15.663Z,20.54
2023-05-06T10:12:21.914Z,20.34
2023-05-06T10:14:28.394Z,20.29
2023-05-06T10:16:34.233Z,20.21
2023-05-06T10:18:43.384Z,20.30
2023-05-06T10:20:49.690Z,20.35
2023-05-06T10:23:04.134Z,20.40
2023-05-06T10:25:20.515Z,20.37
2023-05-06T10:27:27.502Z,20.51
2023-05-06T10:29:32.549Z,20.52
2023-05-06T10:31:37.375Z,20.47
2023-05-06T10:33:48.042Z,20.30
2023-05-06T10:36:00.162Z,20.58
2023-05-06T10:38:10.954Z,20.82
2023-05-06T10:40:16.615Z,21.06
2023-05-06T10:42:21.529Z,20.99
2023-05-06T10:44:56.273Z,20.87
2023-05-06T10:47:02.496Z,20.88
2023-05-06T10:49:22.675Z,21.17
2023-05-06T10:51:34.204Z,21.21
2023-05-06T10:54:03.313Z,21.24
2023-05-06T10:56:11.892Z,21.37
2023-05-06T10:58:18.305Z,21.45
2023-05-06T11:00:23.284Z,21.59
2023-05-06T11:02:28.120Z,21.36
2023-05-06T11:04:37.754Z,21.50
2023-05-06T11:06:44.880Z,21.69
2023-05-06T11:09:01.032Z,21.78
2023-05-06T11:11:41.543Z,21.99
2023-05-06T11:13:46.550Z,22.05
2023-05-06T11:15:53.116Z,21.91
2023-05-06T11:17:59.010Z,21.92
2023-05-06T11:20:25.933Z,22.14
2023-05-06T11:22:41.977Z,22.06
2023-05-06T11:24:47.157Z,22.12
2023-05-06T11:26:53.502Z,22.25
2023-05-06T11:28:58.502Z,22.12
2023-05-06T11:31:03.714Z,22.06
2023-05-06T11:33:10.702Z,22.04
2023-05-06T11:35:18.742Z,21.93
2023-05-06T11:37:31.362Z,22.13
2023-05-06T11:39:40.884Z,22.20
2023-05-06T11:41:46.123Z,22.10
2023-05-06T11:43:51.422Z,21.97
2023-05-06T11:45:56.361Z,22.04
2023-05-06T11:48:01.270Z,22.12
2023-05-06T11:50:08.163Z,22.11
2023-05-06T11:52:14.508Z,22.06
2023-05-06T11:54:24.984Z,21.89
2023-05-06T11:56:30.075Z,21.92
2023-05-06T11:58:35.497Z,21.85
2023-05-06T12:00:40.527Z,21.69
2023-05-06T12:02:45.542Z,21.56
2023-05-06T12:04:53.424Z,21.44
2023-05-06T12:06:59.720Z,21.51
2023-05-06T12:09:05.932Z,21.55
2023-05-06T12:11:14.233Z,21.62
2023-05-06T12:13:19.332Z,21.69
2023-05-06T12:15:24.365Z,21.64
2023-05-06T12:17:29.516Z,21.55
2023-05-06T12:19:35.385Z,21.42
2023-05-06T12:21:41.389Z,21.45
2023-05-06T12:23:53.882Z,21.46
2023-05-06T12:26:06.912Z,21.56
2023-05-06T12:28:26.976Z,21.76
2023-05-06T12:30:32.712Z,21.85
2023-05-06T12:32:37.737Z,21.81
2023-05-06T12:34:45.443Z,21.77
2023-05-06T12:36:51.392Z,21.75
2023-05-06T12:38:58.238Z,21.72
2023-05-06T12:41:04.806Z,21.54
2023-05-06T12:43:10.636Z,21.48
2023-05-06T12:45:22.030Z,21.33
2023-05-06T12:47:28.858Z,21.28
2023-05-06T12:49:53.566Z,21.23
2023-05-06T12:52:14.096Z,21.02
2023-05-06T12:54:35.022Z,21.06
2023-05-06T12:56:41.169Z,21.04
2023-05-06T12:58:46.260Z,21.15
2023-05-06T13:00:53.815Z,21.28
2023-05-06T13:02:59.052Z,21.33
2023-05-06T13:05:04.067Z,21.35
2023-05-06T13:07:09.485Z,21.38
2023-05-06T13:09:15.978Z,21.35
2023-05-06T13:11:22.463Z,21.21
2023-05-06T13:13:27.542Z,21.32
2023-05-06T13:15:32.253Z,21.37
2023-05-06T13:17:42.474Z,21.58
2023-05-06T13:19:47.806Z,21.76
2023-05-06T13:21:52.735Z,21.78
2023-05-06T13:23:57.681Z,21.89
2023-05-06T13:26:05.530Z,21.98
2023-05-06T13:28:10.870Z,21.71
2023-05-06T13:30:15.962Z,21.84
2023-05-06T13:32:21.064Z,21.89
2023-05-06T13:34:28.643Z,21.86
2023-05-06T13:36:33.689Z,22.02
2023-05-06T13:38:38.721Z,21.95
2023-05-06T13:40:43.598Z,21.90
2023-05-06T13:42:48.502Z,21.69
2023-05-06T13:44:53.348Z,21.50
2023-05-06T13:46:58.447Z,21.55
2023-05-06T13:49:03.271Z,21.46
2023-05-06T13:51:11.052Z,21.61
2023-05-06T13:53:16.493Z,21.57
2023-05-06T13:55:21.715Z,21.52
2023-05-06T13:57:26.929Z,21.48
2023-05-06T13:59:31.923Z,21.67
2023-05-06T14:01:37.289Z,21.82
2023-05-06T14:03:42.697Z,22.04
2023-05-06T14:05:47.980Z,22.01
2023-05-06T14:07:55.654Z,22.13
2023-05-06T14:10:01.092Z,22.42
2023-05-06T14:12:06.695Z,22.67
2023-05-06T14:14:11.748Z,23.04
2023-05-06T14:16:16.776Z,23.07
2023-05-06T14:18:21.790Z,22.98
2023-05-06T14:20:26.570Z,22.69
2023-05-06T14:22:31.591Z,22.82
2023-05-06T14:24:38.818Z,22.95
2023-05-06T14:26:46.229Z,23.14
2023-05-06T14:28:51.209Z,23.24
2023-05-06T14:30:56.678Z,23.28
2023-05-06T14:33:01.618Z,23.34
2023-05-06T14:35:06.460Z,23.31
2023-05-06T14:37:11.544Z,23.48
2023-05-06T14:39:16.212Z,23.67
2023-05-06T14:41:23.796Z,23.94
2023-05-06T14:43:28.826Z,24.09
2023-05-06T14:45:33.509Z,24.15
2023-05-06T14:47:38.926Z,24.27
2023-05-06T14:49:43.862Z,24.08
2023-05-06T14:51:50.659Z,23.51
2023-05-06T14:53:55.557Z,23.42
2023-05-06T14:56:00.222Z,23.43
2023-05-06T14:58:07.727Z,23.44
2023-05-06T15:00:15.043Z,23.47
2023-05-06T15:02:20.036Z,23.55
2023-05-06T15:04:24.637Z,23.64
2023-05-06T15:06:29.500Z,23.57
2023-05-06T15:08:34.202Z,23.46
2023-05-06T15:10:42.029Z,23.59
2023-05-06T15:12:46.926Z,23.72
2023-05-06T15:14:54.243Z,23.60
2023-05-06T15:17:00.141Z,23.50
2023-05-06T15:19:05.261Z,23.55
2023-05-06T15:21:09.964Z,23.59
2023-05-06T15:23:14.894Z,23.78
2023-05-06T15:25:34.424Z,24.12
2023-05-06T15:27:41.131Z,24.26
2023-05-06T15:29:46.050Z,24.18
2023-05-06T15:31:53.584Z,24.24
2023-05-06T15:34:00.511Z,24.36
2023-05-06T15:36:06.361Z,24.39
2023-05-06T15:38:11.217Z,24.32
2023-05-06T15:40:16.285Z,24.39
2023-05-06T15:42:21.684Z,24.51
2023-05-06T15:44:26.950Z,24.47
2023-05-06T15:46:33.589Z,24.57
2023-05-06T15:48:41.852Z,24.75
2023-05-06T15:50:47.362Z,24.80
2023-05-06T15:52:52.417Z,24.62
2023-05-06T15:54:59.437Z,24.66
2023-05-06T15:57:06.688Z,24.76
2023-05-06T15:59:12.446Z,24.88
2023-05-06T16:01:22.110Z,24.87
2023-05-06T16:03:34.873Z,24.92
2023-05-06T16:05:44.520Z,25.05
2023-05-06T16:07:49.867Z,25.16
2023-05-06T16:09:54.788Z,25.11
2023-05-06T16:12:00.266Z,25.42
2023-05-06T16:14:05.565Z,25.35
2023-05-06T16:16:10.904Z,25.24
2023-05-06T16:18:15.906Z,25.01
2023-05-06T16:20:20.772Z,24.81
2023-05-06T16:22:27.988Z,24.37
2023-05-06T16:24:33.076Z,24.25
2023-05-06T16:26:37.943Z,23.95
2023-05-06T16:28:43.165Z,23.99
2023-05-06T16:30:47.942Z,23.75
2023-05-06T16:32:53.062Z,23.67
2023-05-06T16:34:59.560Z,23.43
2023-05-06T16:37:05.594Z,23.38
2023-05-06T16:39:13.148Z,23.25
2023-05-06T16:41:18.055Z,23.09
2023-05-06T16:43:24.197Z,23.08
2023-05-06T16:45:28.881Z,22.92
2023-05-06T16:47:33.959Z,22.89
2023-05-06T16:49:39.130Z,22.77
2023-05-06T16:51:43.721Z,22.70
2023-05-06T16:53:48.741Z,22.71
2023-05-06T16:55:56.211Z,22.64
2023-05-06T16:58:02.298Z,22.58
2023-05-06T17:00:12.249Z,22.50
2023-05-06T17:02:17.653Z,22.45
2023-05-06T17:04:22.557Z,22.41
2023-05-06T17:06:31.385Z,22.24
2023-05-06T17:08:37.179Z,22.24
2023-05-06T17:10:43.693Z,22.15
2023-05-06T17:12:51.642Z,22.20
2023-05-06T17:14:56.646Z,22.21
2023-05-06T17:17:04.194Z,22.22
2023-05-06T17:19:09.225Z,22.06
2023-05-06T17:21:13.831Z,21.98
2023-05-06T17:23:18.676Z,21.97
2023-05-06T17:25:23.670Z,21.97
2023-05-06T17:27:28.541Z,21.91
2023-05-06T17:29:36.039Z,21.84
2023-05-06T17:31:40.906Z,21.87
2023-05-06T17:33:45.845Z,21.82
2023-05-06T17:35:50.814Z,21.84
2023-05-06T17:37:56.246Z,21.76
2023-05-06T17:40:01.205Z,21.74
2023-05-06T17:42:06.197Z,21.64
2023-05-06T17:44:10.937Z,21.58
2023-05-06T17:46:19.698Z,21.57
2023-05-06T17:48:24.696Z,21.56
2023-05-06T17:50:29.798Z,21.52
2023-05-06T17:52:34.467Z,21.43
2023-05-06T17:54:41.237Z,21.42
2023-05-06T17:56:50.592Z,21.40
2023-05-06T17:58:56.685Z,21.40
2023-05-06T18:01:01.674Z,21.37
2023-05-06T18:03:09.314Z,21.34
2023-05-06T18:05:14.346Z,21.22
2023-05-06T18:07:19.413Z,21.21
2023-05-06T18:09:24.523Z,21.17
2023-05-06T18:11:29.155Z,21.09
2023-05-06T18:13:37.928Z,21.06
2023-05-06T18:15:43.150Z,21.02
2023-05-06T18:17:48.333Z,20.95
2023-05-06T18:19:55.720Z,20.83
2023-05-06T18:22:00.731Z,20.77
2023-05-06T18:24:15.852Z,20.75
2023-05-06T18:26:39.849Z,20.72
2023-05-06T18:28:46.906Z,20.71
2023-05-06T18:30:54.477Z,20.63
2023-05-06T18:32:59.763Z,20.64
2023-05-06T18:35:07.965Z,20.65
2023-05-06T18:37:13.037Z,20.62
2023-05-06T18:39:18.079Z,20.59
2023-05-06T18:41:23.357Z,20.57
2023-05-06T18:43:29.165Z,20.52
2023-05-06T18:45:34.087Z,20.48
2023-05-06T18:47:40.381Z,20.37
2023-05-06T18:49:45.069Z,20.26
2023-05-06T18:51:54.281Z,20.22
2023-05-06T18:53:59.270Z,20.15
2023-05-06T18:56:04.401Z,20.11
2023-05-06T18:58:09.470Z,20.01
2023-05-06T19:00:16.709Z,19.98
2023-05-06T19:02:21.714Z,19.97
2023-05-06T19:04:26.562Z,19.88
2023-05-06T19:06:32.634Z,19.89
2023-05-06T19:08:40.944Z,19.90
2023-05-06T19:10:45.844Z,19.94
2023-05-06T19:12:51.048Z,19.96
2023-05-06T19:14:56.602Z,19.99
2023-05-06T19:17:01.682Z,19.99
2023-05-06T19:19:07.509Z,19.99
2023-05-06T19:21:12.534Z,19.98
2023-05-06T19:23:17.178Z,19.96
2023-05-06T19:25:24.672Z,20.01
2023-05-06T19:27:29.577Z,20.02
2023-05-06T19:29:34.465Z,20.01
2023-05-06T19:31:40.489Z,20.02
2023-05-06T19:33:46.000Z,19.96
2023-05-06T19:35:50.897Z,20.01
2023-05-06T19:37:56.257Z,20.02
2023-05-06T19:40:01.168Z,19.97
2023-05-06T19:42:08.832Z,19.92
2023-05-06T19:44:13.786Z,19.89
2023-05-06T19:46:19.057Z,19.82
2023-05-06T19:48:24.248Z,19.77
2023-05-06T19:50:29.468Z,19.74
2023-05-06T19:52:34.852Z,19.79
2023-05-06T19:54:42.103Z,19.82
2023-05-06T19:56:46.969Z,19.86
2023-05-06T19:58:54.693Z,19.86
2023-05-06T20:00:59.538Z,19.84
2023-05-06T20:03:04.508Z,19.85
2023-05-06T20:05:09.745Z,19.79
2023-05-06T20:07:16.549Z,19.79
2023-05-06T20:09:21.553Z,19.82
2023-05-06T20:11:26.269Z,19.78
2023-05-06T20:13:31.306Z,19.76
2023-05-06T20:15:38.677Z,19.70
2023-05-06T20:17:43.626Z,19.70
2023-05-06T20:19:48.897Z,19.67
2023-05-06T20:21:54.224Z,19.60
2023-05-06T20:23:59.229Z,19.52
2023-05-06T20:26:04.091Z,19.54
2023-05-06T20:28:10.063Z,19.53
2023-05-06T20:30:15.704Z,19.55
2023-05-06T20:32:23.369Z,19.54
2023-05-06T20:34:28.616Z,19.53
2023-05-06T20:36:35.191Z,19.51
2023-05-06T20:38:40.083Z,19.50
2023-05-06T20:40:44.989Z,19.46
2023-05-06T20:42:50.169Z,19.41
2023-05-06T20:44:54.874Z,19.34
2023-05-06T20:46:59.804Z,19.32
2023-05-06T20:49:07.293Z,19.32
2023-05-06T20:51:12.167Z,19.27
2023-05-06T20:53:17.043Z,19.25
2023-05-06T20:55:23.601Z,19.22
2023-05-06T20:57:28.753Z,19.19
2023-05-06T20:59:33.358Z,19.10
2023-05-06T21:01:40.817Z,19.05
2023-05-06T21:03:46.465Z,19.00
2023-05-06T21:05:55.047Z,18.94
2023-05-06T21:08:00.164Z,18.83
2023-05-06T21:10:06.155Z,18.73
2023-05-06T21:12:11.108Z,18.66
2023-05-06T21:14:16.095Z,18.58
2023-05-06T21:16:21.024Z,18.49
2023-05-06T21:18:26.263Z,18.43
2023-05-06T21:20:31.292Z,18.44
2023-05-06T21:22:38.769Z,18.43
2023-05-06T21:24:43.631Z,18.41
2023-05-06T21:26:48.749Z,18.40
2023-05-06T21:28:53.916Z,18.33
2023-05-06T21:30:58.911Z,18.25
2023-05-06T21:33:03.945Z,18.18
2023-05-06T21:35:10.065Z,18.16
2023-05-06T21:37:15.222Z,18.16
2023-05-06T21:39:24.942Z,18.17
2023-05-06T21:41:29.898Z,18.16
2023-05-06T21:43:34.908Z,18.15
2023-05-06T21:45:42.090Z,18.15
2023-05-06T21:47:47.386Z,18.13
2023-05-06T21:49:52.277Z,18.12
2023-05-06T21:51:57.156Z,18.10
2023-05-06T21:54:02.156Z,18.06
2023-05-06T21:56:09.774Z,18.04
2023-05-06T21:58:14.844Z,17.97
2023-05-06T22:00:23.101Z,17.88
2023-05-06T22:02:28.684Z,17.81
2023-05-06T22:04:33.626Z,17.72
2023-05-06T22:06:39.090Z,17.68
2023-05-06T22:08:44.838Z,17.67
2023-05-06T22:10:49.786Z,17.62
2023-05-06T22:12:57.360Z,17.60
2023-05-06T22:15:02.830Z,17.56
2023-05-06T22:17:09.040Z,17.53
2023-05-06T22:19:14.350Z,17.52
2023-05-06T22:21:27.160Z,17.52
2023-05-06T22:23:34.212Z,17.51
2023-05-06T22:25:41.969Z,17.50
2023-05-06T22:27:47.401Z,17.46
2023-05-06T22:29:55.874Z,17.38
2023-05-06T22:32:04.283Z,17.38
2023-05-06T22:34:09.709Z,17.31
2023-05-06T22:38:52.949Z,17.21
2023-05-06T22:41:00.238Z,17.17
2023-05-06T22:43:13.286Z,17.17
2023-05-06T22:45:21.005Z,17.06
2023-05-06T22:47:26.333Z,17.04
2023-05-06T22:49:31.304Z,16.98
2023-05-06T22:51:36.410Z,16.94
2023-05-06T22:53:41.186Z,16.88
2023-05-06T22:55:46.127Z,16.88
2023-05-06T22:57:54.074Z,16.92
2023-05-06T23:08:28.488Z,17.10
2023-05-06T23:10:35.880Z,17.12
2023-05-06T23:12:41.456Z,17.14
2023-05-06T23:14:46.683Z,17.13
2023-05-06T23:16:51.592Z,17.10
2023-05-06T23:18:56.773Z,17.10
2023-05-06T23:21:04.440Z,17.06
2023-05-06T23:23:10.903Z,17.06
2023-05-06T23:25:22.109Z,17.08
2023-05-06T23:27:27.548Z,17.07
2023-05-06T23:29:32.933Z,17.10
2023-05-06T23:31:38.113Z,17.10
2023-05-06T23:33:44.112Z,17.13
2023-05-06T23:35:49.430Z,17.17
2023-05-06T23:37:54.975Z,17.19
2023-05-06T23:40:03.974Z,17.17
2023-05-06T23:42:12.145Z,17.19
2023-05-06T23:44:17.747Z,17.17
2023-05-06T23:46:26.209Z,17.11
2023-05-06T23:48:34.833Z,17.03
2023-05-06T23:50:44.682Z,16.99
2023-05-06T23:52:50.034Z,16.90
2023-05-06T23:54:55.644Z,16.86
2023-05-06T23:57:01.562Z,16.83
2023-05-06T23:59:09.761Z,16.79
